createdAt,value
2018-06-18T00:00:30.424Z,17.70
2018-06-18T00:02:58.795Z,17.70
2018-06-18T00:05:27.123Z,17.70
2018-06-18T00:07:55.499Z,17.70
2018-06-18T00:10:23.823Z,17.70
2018-06-18T00:12:52.162Z,17.70
2018-06-18T00:15:20.489Z,17.70
2018-06-18T00:17:48.852Z,17.70
2018-06-18T00:20:17.174Z,17.70
2018-06-18T00:22:45.567Z,17.70
2018-06-18T00:25:14.014Z,17.70
2018-06-18T00:27:42.356Z,17.70
2018-06-18T00:30:10.725Z,17.70
2018-06-18T00:32:39.094Z,17.70
2018-06-18T00:35:07.406Z,17.60
2018-06-18T00:37:35.735Z,17.60
2018-06-18T00:40:04.094Z,17.70
2018-06-18T00:42:32.461Z,17.70
2018-06-18T00:45:00.777Z,17.70
2018-06-18T00:47:29.145Z,17.70
2018-06-18T00:49:57.626Z,17.70
2018-06-18T00:52:25.958Z,17.70
2018-06-18T00:54:54.274Z,17.70
2018-06-18T00:57:22.587Z,17.70
2018-06-18T00:59:51.009Z,17.70
2018-06-18T01:02:19.402Z,17.60
2018-06-18T01:04:47.775Z,17.60
2018-06-18T01:07:16.090Z,17.60
2018-06-18T01:09:44.441Z,17.60
2018-06-18T01:12:12.814Z,17.70
2018-06-18T01:14:41.181Z,17.60
2018-06-18T01:17:09.519Z,17.70
2018-06-18T01:19:37.993Z,17.60
2018-06-18T01:22:06.454Z,17.60
2018-06-18T01:24:48.188Z,17.60
2018-06-18T01:27:16.539Z,17.60
2018-06-18T01:29:44.885Z,17.60
2018-06-18T01:32:13.250Z,17.50
2018-06-18T01:34:41.614Z,17.50
2018-06-18T01:37:09.932Z,17.50
2018-06-18T01:39:38.293Z,17.50
2018-06-18T01:42:06.636Z,17.50
2018-06-18T01:44:34.961Z,17.40
2018-06-18T01:47:03.273Z,17.50
2018-06-18T01:49:31.719Z,17.40
2018-06-18T01:52:00.053Z,17.40
2018-06-18T01:54:28.385Z,17.40
2018-06-18T01:56:56.762Z,17.40
2018-06-18T01:59:25.114Z,17.30
2018-06-18T02:01:53.486Z,17.30
2018-06-18T02:04:21.832Z,17.20
2018-06-18T02:06:50.142Z,17.20
2018-06-18T02:09:18.489Z,17.20
2018-06-18T02:11:46.838Z,17.20
2018-06-18T02:14:15.207Z,17.20
2018-06-18T02:16:44.629Z,17.20
2018-06-18T02:19:12.970Z,17.20
2018-06-18T02:21:41.381Z,17.20
2018-06-18T02:24:09.745Z,17.30
2018-06-18T02:26:38.089Z,17.20
2018-06-18T02:29:11.943Z,17.20
2018-06-18T02:31:45.629Z,17.20
2018-06-18T02:34:19.464Z,17.10
2018-06-18T02:36:53.211Z,17.00
2018-06-18T02:39:21.558Z,17.00
2018-06-18T02:41:49.874Z,16.90
2018-06-18T02:44:19.005Z,16.80
2018-06-18T02:46:47.306Z,16.80
2018-06-18T02:49:15.667Z,16.70
2018-06-18T02:51:44.003Z,16.70
2018-06-18T02:54:12.343Z,16.70
2018-06-18T02:56:48.991Z,16.60
2018-06-18T02:59:17.649Z,16.60
2018-06-18T03:01:45.985Z,16.60
2018-06-18T03:04:14.322Z,16.60
2018-06-18T03:06:42.713Z,16.60
2018-06-18T03:09:12.217Z,16.60
2018-06-18T03:11:41.034Z,16.60
2018-06-18T03:14:10.022Z,16.60
2018-06-18T03:16:38.432Z,16.60
2018-06-18T03:19:12.141Z,16.60
2018-06-18T03:21:45.857Z,16.60
2018-06-18T03:24:19.601Z,16.60
2018-06-18T03:26:53.437Z,16.60
2018-06-18T03:29:24.288Z,16.60
2018-06-18T03:31:54.196Z,16.60
2018-06-18T03:34:22.502Z,16.60
2018-06-18T03:36:50.865Z,16.70
2018-06-18T03:39:19.263Z,16.70
2018-06-18T03:41:49.389Z,16.80
2018-06-18T03:44:28.395Z,16.80
2018-06-18T03:46:58.158Z,16.80
2018-06-18T03:49:26.458Z,16.90
2018-06-18T03:51:54.849Z,17.00
2018-06-18T03:54:23.329Z,16.90
2018-06-18T03:56:51.698Z,17.00
2018-06-18T03:59:20.010Z,17.10
2018-06-18T04:01:58.747Z,17.10
2018-06-18T04:04:40.042Z,17.20
2018-06-18T04:07:13.788Z,17.30
2018-06-18T04:12:15.697Z,17.50
2018-06-18T04:14:43.969Z,17.50
2018-06-18T04:17:12.301Z,17.50
2018-06-18T04:19:40.606Z,17.50
2018-06-18T04:22:08.972Z,17.60
2018-06-18T04:24:37.318Z,17.50
2018-06-18T04:27:05.673Z,17.50
2018-06-18T04:29:34.030Z,17.60
2018-06-18T04:32:02.383Z,17.60
2018-06-18T04:34:48.069Z,17.60
2018-06-18T04:37:16.432Z,17.60
2018-06-18T04:39:44.777Z,17.70
2018-06-18T04:42:18.583Z,17.60
2018-06-18T04:44:52.309Z,17.70
2018-06-18T04:47:26.168Z,17.80
2018-06-18T04:49:59.817Z,17.80
2018-06-18T04:52:28.158Z,17.80
2018-06-18T04:54:56.468Z,17.80
2018-06-18T04:57:24.933Z,17.80
2018-06-18T05:00:59.610Z,17.90
2018-06-18T05:03:27.997Z,18.00
2018-06-18T05:05:56.333Z,18.10
2018-06-18T05:08:40.486Z,18.10
2018-06-18T05:11:08.810Z,18.10
2018-06-18T05:13:37.154Z,18.10
2018-06-18T05:16:05.575Z,18.20
2018-06-18T05:18:33.912Z,18.20
2018-06-18T05:21:02.307Z,18.20
2018-06-18T05:23:30.666Z,18.30
2018-06-18T05:26:00.666Z,18.30
2018-06-18T05:28:29.035Z,18.30
2018-06-18T05:30:57.784Z,18.40
2018-06-18T05:33:26.158Z,18.30
2018-06-18T05:35:54.830Z,18.30
2018-06-18T05:38:33.845Z,18.30
2018-06-18T05:41:02.196Z,18.30
2018-06-18T05:43:31.163Z,18.20
2018-06-18T05:45:59.606Z,18.20
2018-06-18T05:48:28.021Z,18.10
2018-06-18T05:50:56.437Z,18.10
2018-06-18T05:53:24.789Z,18.10
2018-06-18T05:55:53.300Z,18.10
2018-06-18T05:58:21.695Z,18.20
2018-06-18T06:00:50.109Z,18.20
2018-06-18T06:03:18.467Z,18.20
2018-06-18T06:05:46.892Z,18.20
2018-06-18T06:08:16.129Z,18.20
2018-06-18T06:10:44.561Z,18.20
2018-06-18T06:13:12.920Z,18.20
2018-06-18T06:15:41.369Z,18.30
2018-06-18T06:18:09.924Z,18.40
2018-06-18T06:21:06.937Z,18.60
2018-06-18T06:23:35.321Z,18.70
2018-06-18T06:26:03.649Z,18.70
2018-06-18T06:28:32.030Z,18.80
2018-06-18T06:31:00.366Z,19.00
2018-06-18T06:33:28.832Z,19.00
2018-06-18T06:35:58.733Z,19.20
2018-06-18T06:38:27.089Z,19.40
2018-06-18T06:40:55.534Z,19.60
2018-06-18T06:43:23.882Z,19.70
2018-06-18T06:45:52.289Z,19.80
2018-06-18T06:48:20.630Z,20.00
2018-06-18T06:50:49.052Z,20.00
2018-06-18T06:53:17.467Z,20.00
2018-06-18T06:55:45.797Z,20.00
2018-06-18T06:58:14.192Z,20.20
2018-06-18T07:00:42.582Z,20.30
2018-06-18T07:03:10.921Z,20.30
2018-06-18T07:05:39.298Z,20.20
2018-06-18T07:08:07.645Z,20.30
2018-06-18T07:10:36.040Z,20.40
2018-06-18T07:13:04.378Z,20.40
2018-06-18T07:15:32.727Z,20.50
2018-06-18T07:18:01.078Z,20.50
2018-06-18T07:20:29.466Z,20.50
2018-06-18T07:22:57.901Z,20.60
2018-06-18T07:25:26.298Z,20.60
2018-06-18T07:27:54.619Z,20.60
2018-06-18T07:30:23.003Z,20.70
2018-06-18T07:32:51.377Z,20.80
2018-06-18T07:35:19.770Z,20.80
2018-06-18T07:37:48.142Z,20.80
2018-06-18T07:40:16.520Z,20.90
2018-06-18T07:42:44.954Z,21.00
2018-06-18T07:45:13.318Z,21.10
2018-06-18T07:47:41.661Z,21.20
2018-06-18T07:50:10.055Z,21.40
2018-06-18T07:52:38.418Z,21.50
2018-06-18T07:55:06.849Z,21.60
2018-06-18T07:57:35.299Z,21.80
2018-06-18T08:00:03.661Z,21.90
2018-06-18T08:02:32.025Z,21.90
2018-06-18T08:05:00.358Z,22.10
2018-06-18T08:07:28.763Z,22.20
2018-06-18T08:09:57.193Z,22.50
2018-06-18T08:12:25.462Z,22.50
2018-06-18T08:14:53.863Z,22.50
2018-06-18T08:17:22.300Z,22.50
2018-06-18T08:19:50.646Z,22.50
2018-06-18T08:22:19.209Z,22.60
2018-06-18T08:24:49.503Z,22.80
2018-06-18T08:27:17.861Z,23.00
2018-06-18T08:29:46.237Z,23.00
2018-06-18T08:32:14.645Z,23.00
2018-06-18T08:34:42.963Z,22.90
2018-06-18T08:37:11.309Z,22.90
2018-06-18T08:39:39.834Z,23.10
2018-06-18T08:42:08.222Z,23.40
2018-06-18T08:44:36.584Z,23.60
2018-06-18T08:47:05.453Z,23.70
2018-06-18T08:49:38.008Z,23.70
2018-06-18T08:52:11.764Z,23.60
2018-06-18T08:54:45.629Z,23.40
2018-06-18T08:57:26.033Z,23.30
2018-06-18T09:01:00.409Z,23.20
2018-06-18T09:03:33.134Z,23.20
2018-06-18T09:06:02.412Z,23.60
2018-06-18T09:08:39.982Z,23.90
2018-06-18T09:11:08.789Z,24.00
2018-06-18T09:13:37.090Z,24.20
2018-06-18T09:16:05.609Z,24.30
2018-06-18T09:18:33.961Z,24.20
2018-06-18T09:23:31.307Z,24.00
2018-06-18T09:26:00.347Z,24.10
2018-06-18T09:30:58.586Z,24.50
2018-06-18T09:33:26.908Z,24.40
2018-06-18T09:35:55.622Z,24.20
2018-06-18T09:38:24.186Z,24.10
2018-06-18T09:40:52.498Z,24.00
2018-06-18T09:43:21.018Z,24.10
2018-06-18T09:45:49.341Z,24.20
2018-06-18T09:48:17.862Z,24.50
2018-06-18T09:50:51.595Z,24.50
2018-06-18T09:53:25.268Z,24.80
2018-06-18T09:55:59.352Z,24.90
2018-06-18T09:58:32.934Z,25.30
2018-06-18T10:03:39.709Z,26.30
2018-06-18T10:06:08.658Z,26.80
2018-06-18T10:08:37.144Z,27.20
2018-06-18T10:11:05.421Z,27.40
2018-06-18T10:13:33.774Z,27.70
2018-06-18T10:16:02.379Z,27.80
2018-06-18T10:18:30.762Z,27.60
2018-06-18T10:20:59.196Z,27.30
2018-06-18T10:23:27.588Z,27.10
2018-06-18T10:25:56.076Z,27.20
2018-06-18T10:28:24.599Z,27.40
2018-06-18T10:30:53.002Z,27.70
2018-06-18T10:33:26.928Z,27.80
2018-06-18T10:36:00.594Z,28.00
2018-06-18T10:38:34.292Z,28.40
2018-06-18T10:41:07.862Z,27.80
2018-06-18T10:43:37.269Z,28.40
2018-06-18T10:46:05.768Z,27.80
2018-06-18T10:48:34.126Z,27.60
2018-06-18T10:51:02.574Z,27.20
2018-06-18T10:53:30.968Z,27.00
2018-06-18T10:55:59.432Z,26.80
2018-06-18T10:58:27.846Z,26.40
2018-06-18T11:01:03.305Z,25.90
2018-06-18T11:03:31.739Z,25.50
2018-06-18T11:06:05.675Z,25.80
2018-06-18T11:08:34.297Z,26.80
2018-06-18T11:11:02.837Z,27.80
2018-06-18T11:13:31.221Z,28.30
2018-06-18T11:15:59.665Z,28.00
2018-06-18T11:18:33.409Z,28.00
2018-06-18T11:21:07.112Z,27.80
2018-06-18T11:23:40.770Z,27.60
2018-06-18T11:26:14.503Z,27.70
2018-06-18T11:28:42.929Z,27.90
2018-06-18T11:36:07.600Z,27.80
2018-06-18T11:38:35.986Z,28.00
2018-06-18T11:41:04.306Z,28.00
2018-06-18T11:43:32.714Z,27.90
2018-06-18T11:46:01.152Z,27.60
2018-06-18T11:48:29.526Z,27.70
2018-06-18T11:53:26.097Z,27.00
2018-06-18T11:55:54.432Z,26.70
2018-06-18T11:58:28.245Z,26.90
2018-06-18T12:01:01.905Z,26.20
2018-06-18T12:03:35.621Z,26.00
2018-06-18T12:06:09.337Z,25.70
2018-06-18T12:08:43.212Z,25.50
2018-06-18T12:11:11.611Z,25.30
2018-06-18T12:13:39.986Z,25.30
2018-06-18T12:16:08.330Z,25.30
2018-06-18T12:18:36.715Z,25.30
2018-06-18T12:21:05.118Z,25.20
2018-06-18T12:23:33.570Z,25.30
2018-06-18T12:26:01.953Z,25.30
2018-06-18T12:28:30.554Z,25.30
2018-06-18T12:30:59.660Z,25.30
2018-06-18T12:33:28.006Z,25.50
2018-06-18T12:35:56.404Z,25.60
2018-06-18T12:38:24.878Z,25.70
2018-06-18T12:40:53.400Z,25.90
2018-06-18T12:43:23.566Z,25.90
2018-06-18T12:45:58.997Z,25.80
2018-06-18T12:48:32.594Z,25.80
2018-06-18T12:51:06.714Z,25.80
2018-06-18T12:53:40.405Z,25.80
2018-06-18T12:56:14.071Z,25.90
2018-06-18T12:58:42.436Z,26.30
2018-06-18T13:01:12.601Z,26.60
2018-06-18T13:03:41.006Z,26.70
2018-06-18T13:06:09.348Z,26.90
2018-06-18T13:08:37.836Z,27.40
2018-06-18T13:11:06.219Z,27.50
2018-06-18T13:13:34.670Z,27.50
2018-06-18T13:16:09.425Z,27.80
2018-06-18T13:18:37.771Z,27.90
2018-06-18T13:21:06.450Z,28.10
2018-06-18T13:23:34.790Z,28.30
2018-06-18T13:26:03.147Z,28.50
2018-06-18T13:28:31.609Z,28.70
2018-06-18T13:31:00.104Z,29.50
2018-06-18T13:33:28.558Z,29.80
2018-06-18T13:35:56.917Z,29.70
2018-06-18T13:38:30.724Z,30.00
2018-06-18T13:41:04.602Z,30.80
2018-06-18T13:43:38.538Z,32.40
2018-06-18T13:46:12.621Z,32.90
2018-06-18T13:48:46.446Z,33.20
2018-06-18T13:51:14.854Z,32.70
2018-06-18T13:53:43.227Z,32.40
2018-06-18T13:56:11.657Z,31.60
2018-06-18T13:58:40.220Z,30.70
2018-06-18T14:01:10.031Z,30.10
2018-06-18T14:03:38.389Z,30.60
2018-06-18T14:06:06.852Z,31.10
2018-06-18T14:08:35.193Z,30.90
2018-06-18T14:11:03.738Z,30.50
2018-06-18T14:13:32.096Z,30.50
2018-06-18T14:16:00.406Z,30.70
2018-06-18T14:18:28.811Z,30.20
2018-06-18T14:20:57.165Z,29.80
2018-06-18T14:23:25.549Z,29.70
2018-06-18T14:25:54.123Z,30.30
2018-06-18T14:28:22.823Z,31.90
2018-06-18T14:30:56.581Z,33.40
2018-06-18T14:33:30.414Z,33.10
2018-06-18T14:36:04.211Z,32.30
2018-06-18T14:38:37.913Z,31.80
2018-06-18T14:41:06.559Z,31.00
2018-06-18T14:43:34.962Z,30.50
2018-06-18T14:46:03.422Z,30.40
2018-06-18T14:48:31.815Z,30.30
2018-06-18T14:51:00.124Z,30.20
2018-06-18T14:53:28.502Z,29.80
2018-06-18T14:56:05.871Z,29.10
2018-06-18T14:58:34.256Z,28.50
2018-06-18T15:01:02.678Z,28.10
2018-06-18T15:03:31.072Z,28.00
2018-06-18T15:05:59.416Z,27.80
2018-06-18T15:08:27.819Z,27.80
2018-06-18T15:10:56.312Z,27.70
2018-06-18T15:13:24.687Z,27.40
2018-06-18T15:15:58.261Z,27.40
2018-06-18T15:18:26.742Z,27.40
2018-06-18T15:20:58.141Z,27.50
2018-06-18T15:23:26.709Z,27.60
2018-06-18T15:25:55.078Z,27.60
2018-06-18T15:28:23.422Z,27.50
2018-06-18T15:30:51.853Z,27.60
2018-06-18T15:33:20.181Z,27.90
2018-06-18T15:35:48.610Z,27.80
2018-06-18T15:38:17.156Z,27.60
2018-06-18T15:40:45.493Z,27.50
2018-06-18T15:43:13.960Z,27.60
2018-06-18T15:45:42.352Z,27.40
2018-06-18T15:48:10.744Z,27.20
2018-06-18T15:50:39.094Z,26.90
2018-06-18T15:53:07.493Z,26.50
2018-06-18T15:55:35.918Z,26.30
2018-06-18T15:58:04.312Z,26.10
2018-06-18T16:00:32.653Z,26.10
2018-06-18T16:03:01.078Z,26.00
2018-06-18T16:07:57.568Z,25.70
2018-06-18T16:10:25.941Z,25.50
2018-06-18T16:12:54.281Z,25.40
2018-06-18T16:15:22.601Z,25.30
2018-06-18T16:17:50.970Z,25.20
2018-06-18T16:20:19.326Z,25.20
2018-06-18T16:22:47.709Z,25.20
2018-06-18T16:27:44.123Z,25.10
2018-06-18T16:30:12.580Z,25.00
2018-06-18T16:32:40.957Z,24.80
2018-06-18T16:35:09.370Z,24.70
2018-06-18T16:37:37.678Z,24.60
2018-06-18T16:40:06.386Z,24.50
2018-06-18T16:42:34.788Z,24.40
2018-06-18T16:45:03.272Z,24.40
2018-06-18T16:47:31.664Z,24.40
2018-06-18T16:50:00.104Z,24.40
2018-06-18T16:54:56.889Z,24.40
2018-06-18T16:57:25.252Z,24.40
2018-06-18T16:59:53.608Z,24.40
2018-06-18T17:02:21.977Z,24.30
2018-06-18T17:04:50.476Z,24.30
2018-06-18T17:07:18.873Z,24.40
2018-06-18T17:09:47.273Z,24.50
2018-06-18T17:12:15.647Z,24.50
2018-06-18T17:14:44.030Z,24.50
2018-06-18T17:17:12.388Z,24.50
2018-06-18T17:19:40.790Z,24.50
2018-06-18T17:22:09.230Z,24.50
2018-06-18T17:24:37.604Z,24.30
2018-06-18T17:27:05.970Z,24.30
2018-06-18T17:29:34.333Z,24.40
2018-06-18T17:32:02.734Z,24.40
2018-06-18T17:34:31.121Z,24.70
2018-06-18T17:36:59.463Z,25.20
2018-06-18T17:39:27.838Z,25.60
2018-06-18T17:41:56.297Z,25.50
2018-06-18T17:44:24.677Z,25.40
2018-06-18T17:46:53.236Z,25.40
2018-06-18T17:49:21.962Z,25.40
2018-06-18T17:51:50.430Z,25.50
2018-06-18T17:54:18.922Z,25.60
2018-06-18T17:56:47.328Z,25.50
2018-06-18T17:59:22.138Z,25.40
2018-06-18T18:01:50.528Z,25.20
2018-06-18T18:04:18.866Z,24.80
2018-06-18T18:06:47.238Z,24.60
2018-06-18T18:09:15.752Z,24.40
2018-06-18T18:11:44.145Z,24.40
2018-06-18T18:14:12.543Z,24.40
2018-06-18T18:16:40.906Z,24.20
2018-06-18T18:19:09.337Z,24.10
2018-06-18T18:21:37.682Z,24.00
2018-06-18T18:24:06.113Z,23.90
2018-06-18T18:26:34.567Z,23.70
2018-06-18T18:29:02.995Z,23.60
2018-06-18T18:31:31.759Z,23.50
2018-06-18T18:34:00.157Z,23.40
2018-06-18T18:36:28.569Z,23.30
2018-06-18T18:38:56.964Z,23.20
2018-06-18T18:41:25.395Z,23.10
2018-06-18T18:43:53.768Z,23.20
2018-06-18T18:46:22.157Z,23.10
2018-06-18T18:48:50.681Z,23.00
2018-06-18T18:51:19.079Z,23.00
2018-06-18T18:53:47.606Z,22.90
2018-06-18T18:56:27.494Z,22.90
2018-06-18T18:59:12.081Z,22.80
2018-06-18T19:01:40.477Z,22.70
2018-06-18T19:04:10.926Z,22.70
2018-06-18T19:06:39.269Z,22.60
2018-06-18T19:09:09.956Z,22.50
2018-06-18T19:11:38.396Z,22.50
2018-06-18T19:14:06.761Z,22.40
2018-06-18T19:16:35.088Z,22.30
2018-06-18T19:19:03.650Z,22.30
2018-06-18T19:21:31.994Z,22.30
2018-06-18T19:24:00.345Z,22.30
2018-06-18T19:26:28.804Z,22.20
2018-06-18T19:28:57.198Z,22.30
2018-06-18T19:31:26.128Z,22.20
2018-06-18T19:33:59.668Z,22.20
2018-06-18T19:36:28.147Z,22.40
2018-06-18T19:38:56.496Z,22.10
2018-06-18T19:41:24.899Z,22.00
2018-06-18T19:43:53.581Z,22.10
2018-06-18T19:46:28.054Z,22.00
2018-06-18T19:49:03.816Z,21.90
2018-06-18T19:51:32.181Z,21.90
2018-06-18T19:54:00.969Z,21.80
2018-06-18T19:56:29.348Z,21.70
2018-06-18T19:58:57.666Z,21.60
2018-06-18T20:01:26.048Z,21.60
2018-06-18T20:03:54.429Z,21.60
2018-06-18T20:06:22.784Z,21.60
2018-06-18T20:08:51.153Z,21.60
2018-06-18T20:11:19.582Z,21.50
2018-06-18T20:13:47.934Z,21.50
2018-06-18T20:16:16.356Z,21.40
2018-06-18T20:18:44.710Z,21.40
2018-06-18T20:21:13.105Z,21.40
2018-06-18T20:23:41.425Z,21.40
2018-06-18T20:26:12.941Z,21.40
2018-06-18T20:28:41.263Z,21.40
2018-06-18T20:31:09.746Z,21.50
2018-06-18T20:33:41.588Z,21.50
2018-06-18T20:36:12.070Z,21.40
2018-06-18T20:38:40.438Z,21.40
2018-06-18T20:41:09.429Z,21.40
2018-06-18T20:43:44.616Z,21.40
2018-06-18T20:46:12.990Z,21.40
2018-06-18T20:48:41.404Z,21.50
2018-06-18T20:51:09.786Z,21.50
2018-06-18T20:53:38.122Z,21.40
2018-06-18T20:56:06.534Z,21.40
2018-06-18T20:58:35.413Z,21.40
2018-06-18T21:01:05.550Z,21.40
2018-06-18T21:03:33.978Z,21.40
2018-06-18T21:06:02.606Z,21.40
2018-06-18T21:08:30.941Z,21.40
2018-06-18T21:10:59.327Z,21.40
2018-06-18T21:13:28.612Z,21.40
2018-06-18T21:15:56.997Z,21.30
2018-06-18T21:18:25.491Z,21.30
2018-06-18T21:20:54.066Z,21.30
2018-06-18T21:23:24.999Z,21.30
2018-06-18T21:25:53.423Z,21.30
2018-06-18T21:28:21.842Z,21.30
2018-06-18T21:30:50.727Z,21.20
2018-06-18T21:33:19.213Z,21.30
2018-06-18T21:35:47.566Z,21.30
2018-06-18T21:38:15.967Z,21.20
2018-06-18T21:43:12.453Z,21.20
2018-06-18T21:45:40.785Z,21.20
2018-06-18T21:48:09.457Z,21.20
2018-06-18T21:50:37.822Z,21.20
2018-06-18T21:53:07.117Z,21.20
2018-06-18T21:55:36.743Z,21.20
2018-06-18T21:58:06.400Z,21.20
2018-06-18T22:00:39.019Z,21.20
2018-06-18T22:03:07.474Z,21.10
2018-06-18T22:05:35.876Z,21.10
2018-06-18T22:08:06.168Z,21.10
2018-06-18T22:10:34.514Z,21.10
2018-06-18T22:13:02.905Z,21.00
2018-06-18T22:15:31.281Z,21.00
2018-06-18T22:17:59.623Z,21.00
2018-06-18T22:20:27.993Z,21.00
2018-06-18T22:22:56.357Z,21.00
2018-06-18T22:25:24.822Z,21.00
2018-06-18T22:27:53.485Z,20.90
2018-06-18T22:30:22.026Z,20.90
2018-06-18T22:32:50.341Z,20.80
2018-06-18T22:35:18.798Z,20.90
2018-06-18T22:37:47.116Z,20.90
2018-06-18T22:40:15.465Z,20.90
2018-06-18T22:42:43.778Z,20.80
2018-06-18T22:45:13.386Z,20.90
2018-06-18T22:47:41.781Z,20.90
2018-06-18T22:50:11.166Z,20.90
2018-06-18T22:52:39.486Z,20.80
2018-06-18T22:55:07.870Z,20.80
2018-06-18T22:57:36.244Z,20.80
2018-06-18T23:00:04.630Z,20.80
2018-06-18T23:02:33.626Z,20.80
2018-06-18T23:05:01.982Z,20.70
2018-06-18T23:07:30.422Z,20.70
2018-06-18T23:09:58.753Z,20.70
2018-06-18T23:12:39.202Z,20.70
2018-06-18T23:15:08.966Z,20.60
2018-06-18T23:17:37.334Z,20.60
2018-06-18T23:20:05.848Z,20.60
2018-06-18T23:22:34.162Z,20.50
2018-06-18T23:25:02.517Z,20.50
2018-06-18T23:27:30.833Z,20.50
2018-06-18T23:29:59.225Z,20.50
2018-06-18T23:32:27.544Z,20.50
2018-06-18T23:34:55.875Z,20.40
2018-06-18T23:37:24.200Z,20.40
2018-06-18T23:39:52.545Z,20.40
2018-06-18T23:42:20.945Z,20.40
2018-06-18T23:44:49.305Z,20.40
2018-06-18T23:47:17.756Z,20.40
2018-06-18T23:49:46.118Z,20.40
2018-06-18T23:52:14.502Z,20.30
2018-06-18T23:54:42.864Z,20.20
2018-06-18T23:57:11.222Z,20.20
2018-06-18T23:59:39.801Z,20.10
